createdAt,value
2018-12-06T00:02:00.316Z,92.94
2018-12-06T00:05:06.177Z,92.84
2018-12-06T00:08:19.363Z,93.17
2018-12-06T00:11:23.868Z,92.57
2018-12-06T00:14:28.486Z,91.92
2018-12-06T00:17:33.093Z,92.34
2018-12-06T00:20:37.707Z,92.61
2018-12-06T00:23:42.250Z,92.44
2018-12-06T00:26:46.972Z,92.25
2018-12-06T00:30:08.432Z,91.45
2018-12-06T00:33:13.052Z,91.22
2018-12-06T00:36:17.613Z,90.65
2018-12-06T00:39:22.274Z,90.25
2018-12-06T00:42:26.859Z,89.78
2018-12-06T00:45:31.390Z,90.06
2018-12-06T00:48:36.121Z,90.40
2018-12-06T00:51:40.714Z,90.79
2018-12-06T00:54:45.278Z,91.62
2018-12-06T00:57:49.793Z,91.48
2018-12-06T01:00:54.902Z,90.96
2018-12-06T01:03:59.488Z,91.31
2018-12-06T01:07:04.190Z,90.71
2018-12-06T01:10:09.013Z,91.43
2018-12-06T01:13:13.583Z,92.01
2018-12-06T01:16:18.137Z,92.68
2018-12-06T01:19:22.791Z,93.45
2018-12-06T01:22:27.560Z,93.86
2018-12-06T01:25:32.260Z,94.02
2018-12-06T01:28:36.828Z,94.52
2018-12-06T01:31:41.499Z,94.85
2018-12-06T01:34:45.952Z,94.77
2018-12-06T01:37:50.655Z,94.90
2018-12-06T01:40:55.211Z,95.59
2018-12-06T01:43:59.967Z,95.57
2018-12-06T01:47:04.675Z,95.50
2018-12-06T01:50:09.494Z,96.36
2018-12-06T01:53:13.973Z,95.31
2018-12-06T01:56:18.552Z,95.64
2018-12-06T01:59:23.222Z,95.44
2018-12-06T02:02:27.763Z,95.01
2018-12-06T02:05:32.303Z,95.35
2018-12-06T02:08:36.875Z,95.54
2018-12-06T02:11:41.577Z,94.76
2018-12-06T02:14:46.063Z,94.26
2018-12-06T02:17:50.582Z,94.04
2018-12-06T02:20:55.108Z,93.77
2018-12-06T02:23:59.694Z,93.25
2018-12-06T02:27:04.381Z,93.60
2018-12-06T02:30:09.413Z,93.87
2018-12-06T02:33:13.967Z,94.69
2018-12-06T02:36:18.578Z,94.86
2018-12-06T02:39:23.090Z,95.17
2018-12-06T02:42:27.905Z,95.51
2018-12-06T02:45:32.474Z,95.53
2018-12-06T02:48:58.929Z,95.55
2018-12-06T02:52:03.431Z,94.58
2018-12-06T02:55:08.392Z,94.30
2018-12-06T02:58:13.081Z,94.38
2018-12-06T03:01:17.749Z,94.88
2018-12-06T03:04:22.443Z,95.23
2018-12-06T03:07:27.181Z,95.14
2018-12-06T03:10:31.760Z,95.38
2018-12-06T03:13:36.375Z,95.49
2018-12-06T03:16:40.991Z,95.14
2018-12-06T03:19:45.608Z,95.27
2018-12-06T03:22:50.377Z,95.19
2018-12-06T03:25:55.136Z,96.23
2018-12-06T03:28:59.677Z,96.16
2018-12-06T03:32:04.216Z,97.06
2018-12-06T03:35:08.778Z,97.53
2018-12-06T03:38:13.799Z,96.85
2018-12-06T03:41:18.560Z,96.36
2018-12-06T03:44:23.136Z,97.22
2018-12-06T03:47:27.626Z,97.31
2018-12-06T03:50:32.320Z,97.20
2018-12-06T03:53:36.804Z,97.23
2018-12-06T03:56:41.300Z,96.96
2018-12-06T03:59:45.877Z,97.03
2018-12-06T04:02:50.453Z,97.20
2018-12-06T04:05:55.032Z,97.48
2018-12-06T04:08:59.768Z,97.09
2018-12-06T04:12:04.351Z,97.37
2018-12-06T04:15:09.021Z,97.18
2018-12-06T04:18:13.547Z,96.92
2018-12-06T04:21:18.013Z,96.98
2018-12-06T04:24:22.528Z,96.67
2018-12-06T04:27:27.233Z,97.11
2018-12-06T04:30:31.773Z,97.46
2018-12-06T04:33:36.339Z,97.14
2018-12-06T04:36:40.970Z,96.97
2018-12-06T04:39:45.767Z,97.09
2018-12-06T04:42:50.354Z,97.21
2018-12-06T04:45:55.005Z,96.77
2018-12-06T04:48:59.490Z,96.48
2018-12-06T04:52:04.051Z,96.20
2018-12-06T04:55:09.398Z,95.23
2018-12-06T04:58:13.980Z,94.82
2018-12-06T05:01:18.604Z,95.68
2018-12-06T05:04:24.410Z,95.58
2018-12-06T05:07:29.067Z,95.19
2018-12-06T05:10:33.610Z,95.22
2018-12-06T05:13:38.252Z,95.48
2018-12-06T05:16:42.763Z,95.32
2018-12-06T05:19:47.305Z,95.98
2018-12-06T05:22:51.922Z,95.20
2018-12-06T05:25:56.532Z,95.48
2018-12-06T05:29:01.248Z,95.04
2018-12-06T05:32:05.831Z,95.53
2018-12-06T05:35:10.547Z,95.62
2018-12-06T05:38:15.213Z,95.23
2018-12-06T05:41:19.765Z,95.49
2018-12-06T05:44:24.328Z,95.98
2018-12-06T05:47:28.836Z,96.31
2018-12-06T05:50:33.385Z,96.44
2018-12-06T05:53:38.363Z,96.82
2018-12-06T05:56:42.870Z,96.97
2018-12-06T05:59:47.463Z,97.84
2018-12-06T06:02:52.022Z,97.89
2018-12-06T06:05:56.527Z,96.95
2018-12-06T06:09:02.392Z,97.61
2018-12-06T06:12:06.983Z,97.46
2018-12-06T06:15:11.960Z,97.22
2018-12-06T06:18:19.515Z,96.77
2018-12-06T06:21:24.121Z,96.62
2018-12-06T06:24:29.194Z,96.59
2018-12-06T06:27:33.799Z,97.21
2018-12-06T06:30:38.403Z,96.58
2018-12-06T06:33:43.057Z,95.50
2018-12-06T06:36:47.713Z,95.71
2018-12-06T06:39:52.210Z,95.68
2018-12-06T06:42:57.075Z,94.45
2018-12-06T06:46:01.572Z,94.95
2018-12-06T06:49:13.563Z,95.80
2018-12-06T06:52:12.781Z,95.72
2018-12-06T06:55:17.518Z,95.99
2018-12-06T06:58:22.014Z,95.80
2018-12-06T07:01:26.735Z,95.49
2018-12-06T07:04:31.269Z,95.19
2018-12-06T07:07:35.843Z,95.65
2018-12-06T07:10:40.410Z,95.00
2018-12-06T07:13:44.958Z,95.20
2018-12-06T07:16:49.585Z,95.41
2018-12-06T07:19:54.262Z,95.12
2018-12-06T07:22:58.779Z,94.96
2018-12-06T07:26:03.311Z,94.95
2018-12-06T07:29:07.901Z,94.76
2018-12-06T07:32:12.517Z,94.95
2018-12-06T07:35:17.277Z,94.73
2018-12-06T07:38:22.665Z,95.12
2018-12-06T07:41:27.391Z,94.84
2018-12-06T07:44:32.009Z,95.07
2018-12-06T07:47:40.311Z,94.83
2018-12-06T07:50:45.000Z,94.33
2018-12-06T07:53:50.222Z,94.46
2018-12-06T08:00:53.453Z,95.11
2018-12-06T08:03:58.050Z,95.53
2018-12-06T08:07:03.085Z,94.77
2018-12-06T08:10:08.868Z,94.84
2018-12-06T08:13:13.637Z,94.97
2018-12-06T08:16:18.284Z,95.04
2018-12-06T08:19:22.866Z,94.85
2018-12-06T08:22:27.927Z,95.19
2018-12-06T08:25:36.889Z,94.91
2018-12-06T08:28:41.652Z,94.63
2018-12-06T08:31:48.045Z,94.96
2018-12-06T08:34:52.578Z,95.15
2018-12-06T08:38:00.099Z,94.51
2018-12-06T08:41:04.625Z,94.52
2018-12-06T08:44:09.165Z,94.32
2018-12-06T08:47:13.721Z,94.54
2018-12-06T08:50:19.083Z,94.15
2018-12-06T08:53:23.685Z,94.23
2018-12-06T08:56:28.338Z,94.47
2018-12-06T08:59:32.830Z,94.43
2018-12-06T09:02:38.032Z,94.28
2018-12-06T09:05:42.625Z,93.92
2018-12-06T09:08:48.224Z,94.56
2018-12-06T09:11:52.782Z,94.47
2018-12-06T09:14:57.238Z,95.38
2018-12-06T09:18:02.301Z,94.81
2018-12-06T09:21:06.864Z,94.59
2018-12-06T09:24:11.355Z,94.63
2018-12-06T09:27:16.650Z,94.80
2018-12-06T09:30:21.288Z,94.18
2018-12-06T09:33:25.920Z,92.47
2018-12-06T09:36:30.631Z,92.24
2018-12-06T09:39:35.382Z,92.98
2018-12-06T09:42:40.125Z,93.33
2018-12-06T09:45:44.876Z,92.56
2018-12-06T09:48:49.403Z,90.45
2018-12-06T09:51:55.414Z,90.26
2018-12-06T09:55:00.045Z,89.72
2018-12-06T09:58:04.617Z,89.94
2018-12-06T10:01:09.188Z,88.96
2018-12-06T10:04:14.901Z,89.75
2018-12-06T10:07:19.494Z,90.18
2018-12-06T10:10:24.017Z,90.64
2018-12-06T10:13:28.592Z,90.17
2018-12-06T10:16:34.189Z,90.17
2018-12-06T10:19:43.322Z,91.15
2018-12-06T10:22:47.994Z,90.71
2018-12-06T10:25:52.614Z,89.75
2018-12-06T10:28:57.175Z,89.11
2018-12-06T10:32:02.110Z,88.50
2018-12-06T10:35:07.032Z,87.58
2018-12-06T10:38:13.566Z,89.41
2018-12-06T10:41:18.078Z,89.47
2018-12-06T10:44:32.544Z,86.99
2018-12-06T10:47:42.553Z,87.32
2018-12-06T10:50:51.674Z,87.43
2018-12-06T10:53:56.219Z,88.14
2018-12-06T10:57:00.811Z,88.30
2018-12-06T11:00:15.039Z,89.10
2018-12-06T11:06:54.737Z,89.10
2018-12-06T11:10:00.509Z,90.46
2018-12-06T11:13:05.108Z,88.83
2018-12-06T11:16:09.848Z,88.86
2018-12-06T11:19:14.346Z,88.56
2018-12-06T11:22:18.852Z,88.78
2018-12-06T11:25:27.476Z,88.04
2018-12-06T11:28:32.465Z,87.38
2018-12-06T11:31:37.134Z,86.32
2018-12-06T11:34:41.823Z,86.57
2018-12-06T11:41:08.050Z,87.33
2018-12-06T11:44:12.602Z,86.31
2018-12-06T11:47:17.225Z,85.31
2018-12-06T11:50:21.833Z,85.37
2018-12-06T11:53:26.432Z,86.45
2018-12-06T11:56:30.944Z,86.82
2018-12-06T11:59:35.501Z,87.53
2018-12-06T12:02:40.043Z,88.18
2018-12-06T12:08:59.963Z,87.90
2018-12-06T12:12:04.617Z,88.75
2018-12-06T12:15:09.560Z,88.43
2018-12-06T12:18:14.177Z,85.96
2018-12-06T12:21:19.065Z,86.86
2018-12-06T12:24:23.592Z,88.20
2018-12-06T12:27:28.224Z,89.45
2018-12-06T12:30:32.778Z,88.67
2018-12-06T12:33:37.694Z,90.00
2018-12-06T12:36:42.294Z,89.10
2018-12-06T12:39:46.920Z,89.23
2018-12-06T12:42:51.750Z,88.72
2018-12-06T12:45:56.422Z,88.75
2018-12-06T12:49:01.057Z,88.16
2018-12-06T12:52:05.635Z,88.76
2018-12-06T12:55:10.206Z,89.09
2018-12-06T12:58:14.681Z,89.18
2018-12-06T13:01:19.294Z,90.79
2018-12-06T13:04:23.864Z,90.94
2018-12-06T13:07:28.419Z,90.80
2018-12-06T13:10:32.915Z,92.25
2018-12-06T13:13:37.638Z,91.40
2018-12-06T13:16:42.191Z,91.50
2018-12-06T13:19:46.821Z,92.53
2018-12-06T13:22:51.425Z,91.80
2018-12-06T13:25:56.154Z,93.28
2018-12-06T13:29:00.745Z,93.67
2018-12-06T13:32:05.828Z,92.94
2018-12-06T13:35:10.531Z,93.43
2018-12-06T13:38:15.157Z,93.42
2018-12-06T13:41:19.740Z,93.29
2018-12-06T13:44:24.338Z,93.05
2018-12-06T13:47:31.598Z,93.16
2018-12-06T13:50:36.353Z,92.79
2018-12-06T13:53:41.451Z,92.29
2018-12-06T13:56:46.199Z,93.02
2018-12-06T13:59:50.775Z,92.68
2018-12-06T14:02:55.387Z,93.83
2018-12-06T14:05:59.992Z,93.61
2018-12-06T14:09:07.138Z,93.34
2018-12-06T14:12:11.636Z,93.33
2018-12-06T14:15:16.186Z,93.39
2018-12-06T14:18:20.878Z,93.25
2018-12-06T14:21:25.411Z,91.72
2018-12-06T14:24:30.278Z,91.89
2018-12-06T14:27:34.863Z,92.22
2018-12-06T14:30:39.770Z,92.72
2018-12-06T14:33:47.343Z,92.60
2018-12-06T14:37:01.695Z,93.08
2018-12-06T14:40:00.356Z,92.54
2018-12-06T14:43:05.114Z,92.49
2018-12-06T14:46:09.835Z,92.86
2018-12-06T14:49:14.485Z,93.40
2018-12-06T14:52:19.098Z,94.40
2018-12-06T14:55:23.885Z,94.67
2018-12-06T14:58:28.450Z,94.29
2018-12-06T15:01:33.145Z,94.19
2018-12-06T15:04:37.917Z,94.25
2018-12-06T15:07:42.878Z,95.01
2018-12-06T15:10:47.495Z,94.77
2018-12-06T15:13:52.142Z,94.86
2018-12-06T15:20:12.814Z,94.93
2018-12-06T15:23:17.378Z,95.27
2018-12-06T15:26:22.146Z,95.62
2018-12-06T15:29:27.011Z,95.07
2018-12-06T15:32:32.442Z,95.66
2018-12-06T15:35:37.215Z,95.59
2018-12-06T15:38:42.197Z,95.97
2018-12-06T15:41:46.718Z,95.31
2018-12-06T15:44:51.545Z,95.63
2018-12-06T15:47:56.248Z,96.58
2018-12-06T15:51:01.033Z,97.27
2018-12-06T15:54:05.762Z,97.08
2018-12-06T15:57:10.467Z,97.44
2018-12-06T16:00:15.491Z,96.70
2018-12-06T16:03:20.187Z,97.80
2018-12-06T16:06:25.133Z,97.75
2018-12-06T16:09:29.838Z,98.04
2018-12-06T16:12:34.764Z,98.25
2018-12-06T16:15:42.033Z,97.77
2018-12-06T16:18:56.335Z,98.29
2018-12-06T16:22:01.435Z,98.69
2018-12-06T16:25:07.478Z,98.55
2018-12-06T16:28:12.246Z,98.13
2018-12-06T16:31:16.909Z,98.26
2018-12-06T16:34:21.808Z,98.41
2018-12-06T16:37:30.837Z,98.02
2018-12-06T16:40:36.811Z,98.09
2018-12-06T16:43:41.797Z,98.38
2018-12-06T16:46:46.459Z,97.51
2018-12-06T16:49:51.478Z,97.69
2018-12-06T16:52:56.467Z,98.09
2018-12-06T16:56:01.136Z,98.88
2018-12-06T16:59:06.096Z,98.51
2018-12-06T17:02:10.766Z,98.32
2018-12-06T17:05:15.468Z,98.06
2018-12-06T17:08:20.140Z,98.35
2018-12-06T17:11:25.448Z,97.70
2018-12-06T17:14:30.238Z,98.34
2018-12-06T17:17:34.763Z,97.90
2018-12-06T17:20:39.539Z,98.37
2018-12-06T17:23:44.119Z,98.88
2018-12-06T17:26:48.584Z,98.97
2018-12-06T17:29:53.431Z,99.04
2018-12-06T17:32:58.104Z,99.06
2018-12-06T17:36:02.716Z,99.46
2018-12-06T17:39:10.878Z,98.68
2018-12-06T17:42:16.389Z,99.33
2018-12-06T17:45:21.278Z,98.81
2018-12-06T17:48:25.843Z,99.17
2018-12-06T17:51:30.855Z,99.34
2018-12-06T17:54:38.069Z,99.22
2018-12-06T17:57:42.803Z,99.49
2018-12-06T18:00:54.938Z,98.70
2018-12-06T18:03:59.753Z,98.98
2018-12-06T18:07:07.038Z,99.67
2018-12-06T18:10:13.408Z,99.01
2018-12-06T18:13:18.174Z,99.11
2018-12-06T18:16:22.921Z,99.18
2018-12-06T18:19:27.576Z,98.89
2018-12-06T18:22:33.288Z,99.60
2018-12-06T18:25:38.512Z,99.12
2018-12-06T18:28:43.062Z,98.69
2018-12-06T18:31:47.745Z,99.05
2018-12-06T18:34:53.002Z,99.52
2018-12-06T18:37:57.694Z,99.58
2018-12-06T18:41:02.231Z,99.20
2018-12-06T18:44:07.038Z,99.51
2018-12-06T18:47:11.783Z,98.75
2018-12-06T18:50:16.621Z,98.98
2018-12-06T18:53:21.219Z,98.77
2018-12-06T18:56:26.205Z,98.87
2018-12-06T18:59:31.155Z,99.40
2018-12-06T19:02:35.812Z,98.95
2018-12-06T19:05:40.912Z,99.38
2018-12-06T19:08:45.666Z,99.47
2018-12-06T19:11:50.365Z,99.94
2018-12-06T19:14:54.950Z,99.31
2018-12-06T19:17:59.682Z,99.80
2018-12-06T19:21:04.523Z,100.00
2018-12-06T19:24:09.222Z,100.00
2018-12-06T19:27:14.012Z,100.00
2018-12-06T19:30:19.975Z,100.00
2018-12-06T19:33:24.606Z,100.00
2018-12-06T19:36:29.626Z,100.00
2018-12-06T19:39:34.358Z,100.00
2018-12-06T19:42:39.176Z,100.00
2018-12-06T19:45:44.029Z,100.00
2018-12-06T19:48:49.143Z,100.00
2018-12-06T19:51:54.284Z,100.00
2018-12-06T19:54:59.252Z,100.00
2018-12-06T19:58:04.134Z,99.58
2018-12-06T20:01:08.813Z,99.27
2018-12-06T20:04:13.800Z,100.00
2018-12-06T20:07:18.588Z,100.00
2018-12-06T20:10:23.776Z,100.00
2018-12-06T20:13:28.687Z,100.00
2018-12-06T20:16:33.439Z,100.00
2018-12-06T20:19:38.267Z,100.00
2018-12-06T20:22:43.143Z,100.00
2018-12-06T20:25:47.755Z,100.00
2018-12-06T20:28:52.464Z,100.00
2018-12-06T20:31:58.078Z,100.00
2018-12-06T20:35:02.895Z,100.00
2018-12-06T20:38:07.703Z,100.00
2018-12-06T20:41:12.303Z,100.00
2018-12-06T20:44:17.315Z,100.00
2018-12-06T20:47:21.934Z,100.00
2018-12-06T20:50:26.676Z,100.00
2018-12-06T20:53:31.563Z,100.00
2018-12-06T20:56:36.186Z,99.87
2018-12-06T20:59:41.150Z,100.00
2018-12-06T21:02:45.648Z,100.00
2018-12-06T21:05:50.630Z,100.00
2018-12-06T21:08:55.237Z,99.53
2018-12-06T21:11:59.881Z,100.00
2018-12-06T21:15:04.871Z,99.92
2018-12-06T21:18:09.564Z,100.00
2018-12-06T21:21:14.178Z,99.87
2018-12-06T21:24:18.880Z,99.70
2018-12-06T21:27:23.496Z,99.17
2018-12-06T21:30:28.103Z,99.13
2018-12-06T21:33:32.831Z,99.39
2018-12-06T21:36:37.535Z,99.95
2018-12-06T21:39:42.230Z,99.44
2018-12-06T21:42:46.919Z,99.73
2018-12-06T21:45:51.681Z,100.00
2018-12-06T21:48:56.393Z,99.99
2018-12-06T21:52:01.099Z,100.00
2018-12-06T21:55:06.544Z,100.00
2018-12-06T21:58:11.371Z,100.00
2018-12-06T22:01:15.991Z,100.00
2018-12-06T22:04:20.602Z,100.00
2018-12-06T22:07:25.344Z,100.00
2018-12-06T22:10:31.022Z,100.00
2018-12-06T22:13:35.757Z,100.00
2018-12-06T22:16:40.408Z,99.62
2018-12-06T22:19:45.175Z,99.23
2018-12-06T22:22:49.835Z,99.08
2018-12-06T22:25:54.405Z,98.55
2018-12-06T22:28:58.973Z,97.77
2018-12-06T22:32:03.595Z,97.76
2018-12-06T22:35:08.387Z,97.69
2018-12-06T22:38:12.988Z,97.91
2018-12-06T22:41:17.636Z,98.17
2018-12-06T22:44:22.488Z,97.86
2018-12-06T22:47:27.167Z,98.28
2018-12-06T22:50:31.905Z,98.91
2018-12-06T22:53:36.549Z,97.67
2018-12-06T22:56:41.162Z,96.97
2018-12-06T22:59:45.806Z,96.69
2018-12-06T23:02:50.385Z,97.77
2018-12-06T23:05:55.580Z,98.13
2018-12-06T23:09:00.189Z,98.09
2018-12-06T23:12:04.761Z,97.15
2018-12-06T23:15:09.625Z,97.58
2018-12-06T23:18:14.591Z,97.62
2018-12-06T23:21:19.173Z,97.15
2018-12-06T23:24:23.775Z,96.97
2018-12-06T23:27:28.456Z,96.77
2018-12-06T23:30:33.062Z,96.85
2018-12-06T23:33:37.601Z,97.27
2018-12-06T23:39:58.796Z,95.93
2018-12-06T23:43:03.735Z,95.62
2018-12-06T23:46:08.535Z,95.25
2018-12-06T23:49:13.129Z,94.89
2018-12-06T23:52:17.825Z,93.50
2018-12-06T23:55:22.382Z,93.21
2018-12-06T23:58:27.008Z,93.43
